Time;durP1;ratioP1;P1;durP2;ratioP2;P2;SDS_P1;SDS_P2;PMS_P1;PMS_P2;Temp;Humidity;BMP_temperature;BMP_pressure;BME280_temperature;BME280_humidity;BME280_pressure;Samples;Min_cycle;Max_cycle;Signal;HPM_P1;HPM_P2
2021/05/21 00:00:39;;;;;;;4.80;1.30;;;13.50;74.70;;;;;;5095561;28;20024;-64
2021/05/21 00:03:05;;;;;;;3.65;1.40;;;13.50;74.50;;;;;;5095257;28;20031;-64
2021/05/21 00:05:32;;;;;;;2.00;1.35;;;13.40;74.30;;;;;;5095233;28;20460;-63
2021/05/21 00:07:58;;;;;;;3.13;1.30;;;13.40;74.40;;;;;;5095485;28;20039;-64
2021/05/21 00:10:24;;;;;;;5.05;1.40;;;13.40;74.60;;;;;;5095372;28;20028;-64
2021/05/21 00:12:50;;;;;;;4.57;1.52;;;13.30;74.00;;;;;;5095211;28;20153;-64
2021/05/21 00:15:19;;;;;;;3.75;1.00;;;13.30;74.40;;;;;;5095266;28;20483;-64
2021/05/21 00:17:44;;;;;;;2.50;1.48;;;13.30;74.10;;;;;;5094079;28;20376;-63
2021/05/21 00:20:11;;;;;;;4.40;1.40;;;13.30;73.60;;;;;;5095637;28;20024;-64
2021/05/21 00:22:37;;;;;;;6.40;1.45;;;13.30;74.00;;;;;;5095027;28;20028;-64
2021/05/21 00:25:04;;;;;;;3.70;1.35;;;13.30;73.80;;;;;;5094961;28;20028;-64
2021/05/21 00:27:29;;;;;;;5.00;1.60;;;13.20;74.00;;;;;;5094513;28;20023;-64
2021/05/21 00:29:55;;;;;;;3.83;1.73;;;13.20;74.10;;;;;;5094678;28;20350;-63
2021/05/21 00:32:20;;;;;;;5.82;1.70;;;13.20;74.20;;;;;;5094782;28;20055;-63
2021/05/21 00:34:46;;;;;;;4.60;1.67;;;13.20;74.40;;;;;;5095035;28;20024;-63
2021/05/21 00:37:12;;;;;;;3.80;1.65;;;13.20;74.50;;;;;;5095201;28;20016;-64
2021/05/21 00:39:37;;;;;;;3.67;1.60;;;13.10;74.60;;;;;;5094762;28;20032;-64
2021/05/21 00:42:06;;;;;;;4.47;1.83;;;13.10;74.80;;;;;;5094854;28;20123;-64
2021/05/21 00:44:32;;;;;;;3.80;1.58;;;13.10;74.80;;;;;;5094793;28;20024;-64
2021/05/21 00:46:58;;;;;;;3.22;1.85;;;13.10;74.90;;;;;;5094703;28;20383;-64
2021/05/21 00:49:23;;;;;;;6.45;1.48;;;13.10;74.90;;;;;;5094736;28;20031;-64
2021/05/21 00:51:49;;;;;;;4.68;1.50;;;13.10;74.90;;;;;;5094503;28;20024;-64
2021/05/21 00:54:19;;;;;;;3.45;1.60;;;13.10;74.80;;;;;;5094609;28;20542;-63
2021/05/21 00:56:45;;;;;;;2.95;1.50;;;13.10;74.80;;;;;;5094723;28;20054;-64
2021/05/21 00:59:11;;;;;;;3.38;1.20;;;13.10;74.80;;;;;;5091955;28;20028;-64
2021/05/21 01:01:38;;;;;;;4.32;1.40;;;13.10;74.70;;;;;;5091750;28;20020;-64
2021/05/21 01:04:04;;;;;;;6.35;1.67;;;13.00;74.50;;;;;;5092136;28;20031;-64
2021/05/21 01:06:31;;;;;;;6.88;1.40;;;13.00;74.50;;;;;;5094066;28;20016;-64
2021/05/21 01:08:57;;;;;;;4.13;1.30;;;13.00;73.90;;;;;;5093941;28;20157;-64
2021/05/21 01:11:23;;;;;;;5.00;1.35;;;12.90;73.90;;;;;;5093919;28;20107;-64
2021/05/21 01:13:49;;;;;;;6.90;1.35;;;12.90;74.40;;;;;;5093836;28;20385;-64
2021/05/21 01:16:15;;;;;;;2.30;1.30;;;12.90;74.60;;;;;;5094421;28;20126;-64
2021/05/21 01:18:41;;;;;;;3.70;1.63;;;12.90;74.50;;;;;;5093894;28;20064;-63
2021/05/21 01:21:07;;;;;;;5.25;1.90;;;12.80;74.50;;;;;;5093638;28;20492;-64
2021/05/21 01:23:33;;;;;;;6.07;1.30;;;12.80;74.60;;;;;;5093916;28;20020;-64
2021/05/21 01:25:58;;;;;;;6.63;1.52;;;12.80;74.80;;;;;;5093926;28;20024;-71
2021/05/21 01:28:24;;;;;;;4.97;1.35;;;12.80;75.30;;;;;;5093295;28;20028;-64
2021/05/21 01:30:50;;;;;;;4.93;1.33;;;12.80;75.50;;;;;;5093208;28;20357;-63
2021/05/21 01:33:17;;;;;;;2.17;1.15;;;12.80;75.40;;;;;;5093776;28;20032;-64
2021/05/21 01:35:44;;;;;;;2.92;1.00;;;12.80;75.00;;;;;;5093630;28;20024;-64
2021/05/21 01:38:12;;;;;;;2.88;0.90;;;12.80;75.60;;;;;;5093752;28;20043;-64
2021/05/21 01:40:38;;;;;;;2.78;1.13;;;12.70;75.50;;;;;;5092592;28;20020;-64
2021/05/21 01:43:04;;;;;;;2.78;1.30;;;12.80;75.60;;;;;;5093160;28;20380;-64
2021/05/21 01:45:30;;;;;;;3.25;1.00;;;12.80;75.60;;;;;;5093692;28;20106;-64
2021/05/21 01:47:57;;;;;;;2.97;1.00;;;12.80;75.50;;;;;;5093415;28;20020;-63
2021/05/21 01:50:24;;;;;;;4.43;1.00;;;12.80;75.30;;;;;;5093122;28;20028;-64
2021/05/21 01:52:49;;;;;;;3.17;1.00;;;12.80;75.10;;;;;;5093395;28;20446;-64
2021/05/21 01:55:15;;;;;;;2.03;1.15;;;12.80;74.80;;;;;;5092948;28;20074;-64
2021/05/21 01:57:42;;;;;;;4.30;1.10;;;12.80;74.80;;;;;;5092842;28;20380;-64
2021/05/21 02:00:10;;;;;;;5.70;1.10;;;12.70;74.70;;;;;;5093169;28;20024;-64
2021/05/21 02:02:36;;;;;;;1.40;1.00;;;12.70;74.90;;;;;;5093440;28;20495;-64
2021/05/21 02:05:04;;;;;;;2.95;0.70;;;12.70;75.40;;;;;;5093659;28;20024;-64
2021/05/21 02:07:29;;;;;;;1.50;1.00;;;12.70;75.20;;;;;;5093659;28;20105;-64
2021/05/21 02:10:05;;;;;;;4.38;0.90;;;12.70;75.50;;;;;;5093012;28;20032;-64
2021/05/21 02:12:32;;;;;;;2.55;1.00;;;12.70;75.30;;;;;;5093069;28;20124;-63
2021/05/21 02:15:00;;;;;;;3.30;1.17;;;12.60;75.10;;;;;;5093201;28;20024;-64
2021/05/21 02:17:27;;;;;;;2.10;0.82;;;12.60;75.10;;;;;;5093118;28;20029;-64
2021/05/21 02:19:57;;;;;;;3.33;0.93;;;12.50;74.50;;;;;;5093229;28;20028;-64
2021/05/21 02:22:24;;;;;;;1.95;0.85;;;12.50;75.30;;;;;;5093354;28;20111;-64
2021/05/21 02:24:54;;;;;;;1.17;0.90;;;12.50;75.70;;;;;;5093022;28;20023;-64
2021/05/21 02:27:19;;;;;;;1.30;0.90;;;12.50;75.30;;;;;;5093197;28;20085;-64
2021/05/21 02:29:45;;;;;;;5.35;0.85;;;12.50;75.00;;;;;;5092692;28;20026;-64
2021/05/21 02:32:11;;;;;;;3.22;0.80;;;12.50;74.70;;;;;;5092977;28;20108;-64
2021/05/21 02:34:36;;;;;;;1.15;0.80;;;12.50;74.80;;;;;;5093112;28;20453;-64
2021/05/21 02:37:02;;;;;;;2.28;0.88;;;12.50;74.70;;;;;;5093160;28;20095;-71
2021/05/21 02:39:28;;;;;;;2.65;0.80;;;12.50;74.80;;;;;;5092901;28;20040;-64
2021/05/21 02:41:53;;;;;;;3.97;0.75;;;12.50;75.60;;;;;;5093060;28;20024;-64
2021/05/21 02:44:19;;;;;;;0.98;0.70;;;12.40;74.70;;;;;;5093205;28;20096;-64
2021/05/21 02:46:45;;;;;;;2.72;0.80;;;12.40;75.10;;;;;;5093004;28;20028;-64
2021/05/21 02:49:11;;;;;;;1.17;0.70;;;12.40;75.30;;;;;;5092666;28;20013;-64
2021/05/21 02:51:37;;;;;;;8.38;0.90;;;12.40;75.10;;;;;;5094331;28;20054;-64
2021/05/21 02:54:03;;;;;;;2.65;0.80;;;12.40;75.00;;;;;;5096383;28;20116;-64
2021/05/21 02:56:28;;;;;;;0.95;0.73;;;12.40;74.80;;;;;;5096744;28;20031;-64
2021/05/21 02:58:56;;;;;;;2.88;0.80;;;12.30;74.50;;;;;;5096872;28;20016;-64
2021/05/21 03:01:22;;;;;;;1.50;0.68;;;12.30;74.40;;;;;;5096817;28;20074;-64
2021/05/21 03:03:47;;;;;;;1.70;0.50;;;12.30;74.10;;;;;;5097167;28;20032;-64
2021/05/21 03:06:13;;;;;;;2.70;0.70;;;12.30;73.90;;;;;;5096721;28;20103;-64
2021/05/21 03:08:39;;;;;;;1.33;0.63;;;12.20;73.40;;;;;;5095501;28;20028;-64
2021/05/21 03:11:04;;;;;;;3.03;0.70;;;12.20;74.00;;;;;;5096535;28;20016;-64
2021/05/21 03:13:30;;;;;;;1.83;0.75;;;12.20;74.30;;;;;;5096435;28;20054;-64
2021/05/21 03:15:56;;;;;;;2.45;0.60;;;12.20;74.20;;;;;;5096721;28;20101;-64
2021/05/21 03:18:24;;;;;;;1.75;0.50;;;12.20;74.00;;;;;;5096662;28;20024;-63
2021/05/21 03:20:51;;;;;;;1.25;0.68;;;12.20;73.90;;;;;;5096266;28;20476;-64
2021/05/21 03:23:17;;;;;;;2.60;0.70;;;12.20;74.00;;;;;;5096291;28;20024;-64
2021/05/21 03:25:43;;;;;;;3.70;1.00;;;12.20;74.10;;;;;;5096695;28;20357;-63
2021/05/21 03:28:10;;;;;;;1.80;0.70;;;12.20;74.00;;;;;;5096326;28;20028;-64
2021/05/21 03:30:40;;;;;;;2.00;0.88;;;12.20;73.70;;;;;;5095955;28;20027;-64
2021/05/21 03:33:08;;;;;;;1.08;0.65;;;12.20;74.10;;;;;;5095918;28;20106;-64
2021/05/21 03:35:35;;;;;;;2.15;0.70;;;12.20;74.10;;;;;;5096260;28;20500;-64
2021/05/21 03:38:03;;;;;;;5.57;0.90;;;12.10;74.70;;;;;;5096271;28;20073;-63
2021/05/21 03:40:30;;;;;;;2.53;0.75;;;12.10;74.50;;;;;;5096394;28;20123;-64
2021/05/21 03:42:57;;;;;;;1.52;0.68;;;12.20;73.80;;;;;;5096368;28;20447;-64
2021/05/21 03:45:22;;;;;;;1.98;0.52;;;12.10;74.20;;;;;;5095980;28;20526;-64
2021/05/21 03:47:48;;;;;;;0.80;0.50;;;12.20;74.20;;;;;;5095586;28;20031;-64
2021/05/21 03:50:17;;;;;;;1.30;0.93;;;12.10;73.80;;;;;;5095610;28;20445;-64
2021/05/21 03:52:43;;;;;;;3.40;1.05;;;12.10;74.00;;;;;;5095564;28;20094;-64
2021/05/21 03:55:10;;;;;;;2.33;1.02;;;12.10;73.80;;;;;;5095395;28;20115;-64
2021/05/21 03:57:37;;;;;;;1.10;0.82;;;12.10;73.10;;;;;;5095571;28;20020;-64
2021/05/21 04:00:05;;;;;;;0.95;0.70;;;12.10;73.90;;;;;;5095559;28;20016;-64
2021/05/21 04:02:31;;;;;;;1.67;1.35;;;12.20;74.50;;;;;;5094832;28;20043;-64
2021/05/21 04:04:57;;;;;;;6.85;2.78;;;12.10;74.20;;;;;;5095121;28;20071;-64
2021/05/21 04:07:23;;;;;;;3.63;2.38;;;12.20;74.60;;;;;;5095783;28;20030;-63
2021/05/21 04:09:48;;;;;;;2.75;2.20;;;12.20;74.30;;;;;;5095426;28;20468;-64
2021/05/21 04:12:14;;;;;;;2.45;1.67;;;12.20;74.30;;;;;;5095090;28;20044;-64
2021/05/21 04:14:40;;;;;;;2.45;1.10;;;12.20;74.70;;;;;;5095474;28;20024;-64
2021/05/21 04:17:05;;;;;;;1.05;0.80;;;12.30;74.80;;;;;;5095209;28;20078;-64
2021/05/21 04:19:31;;;;;;;4.85;1.00;;;12.30;75.20;;;;;;5095306;28;20028;-64
2021/05/21 04:21:57;;;;;;;1.77;0.77;;;12.30;75.40;;;;;;5095338;28;20055;-64
2021/05/21 04:24:22;;;;;;;1.73;0.75;;;12.30;75.80;;;;;;5095118;28;20521;-64
2021/05/21 04:26:48;;;;;;;3.42;0.80;;;12.30;75.80;;;;;;5094891;28;20036;-64
2021/05/21 04:29:14;;;;;;;3.38;0.90;;;12.40;75.90;;;;;;5094779;28;20056;-64
2021/05/21 04:31:39;;;;;;;4.20;0.80;;;12.40;75.30;;;;;;5095115;28;20060;-64
2021/05/21 04:34:05;;;;;;;2.00;1.00;;;12.40;75.30;;;;;;5094876;28;20043;-64
2021/05/21 04:36:31;;;;;;;0.73;0.60;;;12.40;74.90;;;;;;5094916;28;20028;-64
2021/05/21 04:38:56;;;;;;;1.45;0.73;;;12.40;74.80;;;;;;5095080;28;20035;-65
2021/05/21 04:41:22;;;;;;;2.35;0.73;;;12.50;74.70;;;;;;5094916;28;20103;-64
2021/05/21 04:43:48;;;;;;;1.30;0.90;;;12.50;74.70;;;;;;5095094;28;20073;-64
2021/05/21 04:46:15;;;;;;;1.20;0.90;;;12.60;74.90;;;;;;5095442;28;20024;-64
2021/05/21 04:48:40;;;;;;;5.53;0.85;;;12.50;74.70;;;;;;5094970;28;20020;-63
2021/05/21 04:51:06;;;;;;;1.90;0.85;;;12.60;74.60;;;;;;5094826;28;20475;-64
2021/05/21 04:53:32;;;;;;;2.80;0.90;;;12.60;74.40;;;;;;5094558;28;20036;-64
2021/05/21 04:55:57;;;;;;;2.35;0.98;;;12.60;74.40;;;;;;5094549;28;20047;-64
2021/05/21 04:58:23;;;;;;;1.98;0.90;;;12.60;74.30;;;;;;5094581;28;20097;-64
2021/05/21 05:00:49;;;;;;;2.47;0.82;;;12.60;74.10;;;;;;5094298;28;20047;-64
2021/05/21 05:03:18;;;;;;;4.38;1.25;;;12.70;74.50;;;;;;5094424;28;20107;-64
2021/05/21 05:05:45;;;;;;;3.15;0.90;;;12.70;74.60;;;;;;5094434;28;20028;-65
2021/05/21 05:08:13;;;;;;;10.82;1.13;;;12.70;74.90;;;;;;5094273;28;20024;-64
2021/05/21 05:10:39;;;;;;;6.60;1.10;;;12.70;75.40;;;;;;5094340;28;20016;-64
2021/05/21 05:13:05;;;;;;;4.07;1.30;;;12.70;76.20;;;;;;5094301;28;20380;-73
2021/05/21 05:15:33;;;;;;;9.93;1.17;;;12.70;76.10;;;;;;5094141;28;20115;-64
2021/05/21 05:17:59;;;;;;;2.85;0.90;;;12.80;76.20;;;;;;5094464;28;20024;-64
2021/05/21 05:20:26;;;;;;;2.03;0.90;;;12.80;76.50;;;;;;5094035;28;20031;-63
2021/05/21 05:22:52;;;;;;;0.80;0.60;;;12.80;76.40;;;;;;5094207;28;20020;-64
2021/05/21 05:25:18;;;;;;;2.65;0.75;;;12.80;76.00;;;;;;5093919;28;20487;-64
2021/05/21 05:27:44;;;;;;;2.22;0.85;;;12.90;75.40;;;;;;5093926;28;20020;-64
2021/05/21 05:30:10;;;;;;;1.58;0.70;;;12.80;74.90;;;;;;5093938;28;20021;-64
2021/05/21 05:32:36;;;;;;;4.63;0.88;;;12.90;74.10;;;;;;5093837;28;20118;-64
2021/05/21 05:35:03;;;;;;;3.80;0.70;;;12.90;73.10;;;;;;5093848;28;20107;-64
2021/05/21 05:37:28;;;;;;;0.82;0.60;;;13.00;72.30;;;;;;5093851;28;20028;-64
2021/05/21 05:39:54;;;;;;;1.15;0.77;;;13.00;71.80;;;;;;5092678;28;20032;-64
2021/05/21 05:42:20;;;;;;;1.00;0.60;;;13.10;71.30;;;;;;5094355;28;20089;-64
2021/05/21 05:44:45;;;;;;;2.55;0.70;;;13.10;70.90;;;;;;5093570;28;20028;-64
2021/05/21 05:47:11;;;;;;;1.55;0.40;;;13.20;70.20;;;;;;5093758;28;20024;-63
2021/05/21 05:49:36;;;;;;;2.47;0.70;;;13.20;69.50;;;;;;5093784;28;20412;-64
2021/05/21 05:52:03;;;;;;;3.22;0.60;;;13.30;69.00;;;;;;5093853;28;20028;-64
2021/05/21 05:54:29;;;;;;;4.18;0.68;;;13.30;69.00;;;;;;5093362;28;20074;-64
2021/05/21 05:56:55;;;;;;;2.40;0.65;;;13.40;69.00;;;;;;5093432;28;20020;-64
2021/05/21 05:59:21;;;;;;;2.22;0.60;;;13.40;68.40;;;;;;5093111;28;20024;-64
2021/05/21 06:01:46;;;;;;;5.03;0.75;;;13.50;68.30;;;;;;5093469;28;20026;-65
2021/05/21 06:04:12;;;;;;;1.60;0.68;;;13.50;68.50;;;;;;5093246;28;20399;-63
2021/05/21 06:06:38;;;;;;;4.13;0.63;;;13.60;68.70;;;;;;5093206;28;20085;-65
2021/05/21 06:09:04;;;;;;;3.03;0.77;;;13.60;69.20;;;;;;5093113;28;20028;-65
2021/05/21 06:11:30;;;;;;;3.63;0.80;;;13.60;69.00;;;;;;5093412;28;20095;-65
2021/05/21 06:13:56;;;;;;;5.22;0.93;;;13.60;68.80;;;;;;5091386;28;20456;-66
2021/05/21 06:16:22;;;;;;;2.70;0.90;;;13.70;68.70;;;;;;5092779;28;20028;-66
2021/05/21 06:18:48;;;;;;;3.65;0.85;;;13.70;69.00;;;;;;5085129;28;20028;-66
2021/05/21 06:21:14;;;;;;;4.18;0.93;;;13.80;69.20;;;;;;5072390;28;20109;-66
2021/05/21 06:23:40;;;;;;;4.85;0.70;;;13.80;69.00;;;;;;5072883;28;20074;-66
2021/05/21 06:27:15;;;;;;;1.50;0.65;;;13.80;68.70;;;;;;5072451;28;20055;-65
2021/05/21 06:28:55;;;;;;;3.25;0.70;;;13.90;68.50;;;;;;5080003;28;20121;-67
2021/05/21 06:31:22;;;;;;;1.20;0.68;;;13.90;69.20;;;;;;5092829;28;20497;-66
2021/05/21 06:33:48;;;;;;;4.15;0.93;;;13.90;69.50;;;;;;5092850;28;20044;-66
2021/05/21 06:36:14;;;;;;;2.05;0.65;;;14.00;69.20;;;;;;5092907;28;20048;-65
2021/05/21 06:38:40;;;;;;;2.35;0.77;;;14.10;68.80;;;;;;5092646;28;20055;-66
2021/05/21 06:41:08;;;;;;;2.42;0.80;;;14.10;68.80;;;;;;5092529;28;20027;-65
2021/05/21 06:43:34;;;;;;;3.65;0.60;;;14.20;68.80;;;;;;5092612;28;20031;-66
2021/05/21 06:46:01;;;;;;;1.27;0.50;;;14.30;68.40;;;;;;5091720;28;20031;-66
2021/05/21 06:48:31;;;;;;;6.80;0.60;;;14.30;68.30;;;;;;5091209;28;20024;-65
2021/05/21 06:51:02;;;;;;;1.05;0.57;;;14.40;68.20;;;;;;5090684;28;20020;-65
2021/05/21 06:53:28;;;;;;;2.40;0.85;;;14.50;68.10;;;;;;5090768;28;20486;-65
2021/05/21 06:55:54;;;;;;;1.70;0.77;;;14.60;68.20;;;;;;5091905;28;20127;-66
2021/05/21 06:58:20;;;;;;;3.00;0.75;;;14.70;67.90;;;;;;5092565;28;20099;-68
2021/05/21 07:00:50;;;;;;;1.33;0.70;;;14.80;67.70;;;;;;5091462;28;20089;-69
2021/05/21 07:03:17;;;;;;;2.90;0.90;;;14.90;67.10;;;;;;5093014;28;20017;-72
2021/05/21 07:05:43;;;;;;;4.60;0.60;;;14.90;67.20;;;;;;5091365;28;20024;-66
2021/05/21 07:08:12;;;;;;;0.80;0.50;;;15.00;67.30;;;;;;5091823;28;20024;-66
2021/05/21 07:10:38;;;;;;;1.42;0.70;;;15.10;68.00;;;;;;5091198;28;20541;-66
2021/05/21 07:13:12;;;;;;;1.60;0.70;;;15.20;66.60;;;;;;5091630;28;20065;-66
2021/05/21 07:15:38;;;;;;;1.35;0.60;;;15.30;65.70;;;;;;5091665;28;20024;-66
2021/05/21 07:18:06;;;;;;;2.35;0.88;;;15.30;65.90;;;;;;5091947;28;20052;-65
2021/05/21 07:20:31;;;;;;;1.35;0.60;;;15.40;65.90;;;;;;5090768;28;20020;-66
2021/05/21 07:22:57;;;;;;;0.77;0.50;;;15.40;65.00;;;;;;5092088;28;20024;-66
2021/05/21 07:25:24;;;;;;;3.05;0.50;;;15.50;64.60;;;;;;5091292;28;20020;-66
2021/05/21 07:27:50;;;;;;;2.40;0.50;;;15.60;62.60;;;;;;5091165;28;20016;-66
2021/05/21 07:30:17;;;;;;;3.42;0.40;;;15.70;62.40;;;;;;5091363;28;20028;-67
2021/05/21 07:32:42;;;;;;;0.88;0.40;;;15.80;62.10;;;;;;5091922;28;20480;-67
2021/05/21 07:35:09;;;;;;;1.90;0.50;;;15.80;60.90;;;;;;5091848;28;20030;-66
2021/05/21 07:37:34;;;;;;;4.53;0.70;;;15.90;60.00;;;;;;5091889;28;20043;-66
2021/05/21 07:40:01;;;;;;;2.63;0.40;;;16.00;60.20;;;;;;5095038;28;20116;-66
2021/05/21 07:42:26;;;;;;;0.70;0.25;;;16.10;60.40;;;;;;5095189;28;20476;-66
2021/05/21 07:44:52;;;;;;;0.93;0.50;;;16.20;59.90;;;;;;5094752;28;20107;-66
2021/05/21 07:47:20;;;;;;;2.42;0.52;;;16.30;57.30;;;;;;5094551;28;20028;-66
2021/05/21 07:49:45;;;;;;;4.95;0.40;;;16.40;56.70;;;;;;5095909;28;20024;-66
2021/05/21 07:52:11;;;;;;;4.50;0.50;;;16.40;56.60;;;;;;5096341;28;20108;-66
2021/05/21 07:54:37;;;;;;;0.88;0.50;;;16.40;54.00;;;;;;5095816;28;20040;-66
2021/05/21 07:57:03;;;;;;;0.73;0.35;;;16.50;54.60;;;;;;5095997;28;20464;-66
2021/05/21 07:59:28;;;;;;;2.88;0.30;;;16.60;53.60;;;;;;5096033;28;20032;-67
2021/05/21 08:01:54;;;;;;;2.88;0.40;;;16.60;54.60;;;;;;5095846;28;20016;-66
2021/05/21 08:04:20;;;;;;;0.38;0.30;;;16.70;51.70;;;;;;5095748;28;20036;-66
2021/05/21 08:06:45;;;;;;;2.17;0.38;;;16.80;52.90;;;;;;5095885;28;20094;-66
2021/05/21 08:09:11;;;;;;;2.17;0.40;;;16.80;53.20;;;;;;5095151;28;20063;-66
2021/05/21 08:11:37;;;;;;;2.85;0.32;;;16.90;49.80;;;;;;5095387;28;20016;-66
2021/05/21 08:14:04;;;;;;;1.25;0.35;;;17.00;51.30;;;;;;5095718;28;20036;-66
2021/05/21 08:16:30;;;;;;;1.33;0.45;;;17.00;51.80;;;;;;5095831;28;20034;-66
2021/05/21 08:18:57;;;;;;;2.05;0.50;;;17.00;51.30;;;;;;5095311;28;20032;-67
2021/05/21 08:21:24;;;;;;;1.65;0.40;;;17.10;53.40;;;;;;5095673;28;20028;-66
2021/05/21 08:23:50;;;;;;;1.17;0.40;;;17.20;53.10;;;;;;5095659;28;20371;-69
2021/05/21 08:26:16;;;;;;;4.05;0.30;;;17.30;52.00;;;;;;5095406;28;20024;-66
2021/05/21 08:28:42;;;;;;;2.20;0.50;;;17.40;50.60;;;;;;5095579;28;20061;-66
2021/05/21 08:31:11;;;;;;;2.38;0.30;;;17.50;44.80;;;;;;5095217;28;20032;-66
2021/05/21 08:33:43;;;;;;;0.68;0.40;;;17.60;45.60;;;;;;5095089;28;20031;-66
2021/05/21 08:36:10;;;;;;;1.65;0.45;;;17.60;43.00;;;;;;5095173;28;20046;-66
2021/05/21 08:38:44;;;;;;;2.10;0.40;;;17.70;44.70;;;;;;5094992;28;20024;-66
2021/05/21 08:41:26;;;;;;;0.50;0.30;;;17.70;45.80;;;;;;5095200;28;20061;-66
2021/05/21 08:43:53;;;;;;;3.30;0.55;;;17.80;45.50;;;;;;5094844;28;20093;-66
2021/05/21 08:46:20;;;;;;;0.40;0.30;;;17.90;43.70;;;;;;5095210;28;20077;-66
2021/05/21 08:48:46;;;;;;;1.40;0.40;;;17.90;43.40;;;;;;5094560;28;20078;-66
2021/05/21 08:51:14;;;;;;;3.40;0.40;;;18.00;43.00;;;;;;5095063;28;20024;-66
2021/05/21 08:53:41;;;;;;;1.20;0.40;;;18.00;42.80;;;;;;5094905;28;20452;-66
2021/05/21 08:56:08;;;;;;;1.42;0.68;;;18.00;44.80;;;;;;5094746;28;20496;-66
2021/05/21 08:58:35;;;;;;;1.60;0.50;;;18.00;45.80;;;;;;5094601;28;20020;-66
2021/05/21 09:01:01;;;;;;;2.05;0.57;;;18.00;44.00;;;;;;5094853;28;20353;-66
2021/05/21 09:03:30;;;;;;;0.93;0.40;;;18.10;45.30;;;;;;5094761;28;20422;-66
2021/05/21 09:08:58;;;;;;;1.53;0.40;;;18.20;44.70;;;;;;5094696;28;21095;-66
2021/05/21 09:11:42;;;;;;;2.15;0.73;;;18.20;44.20;;;;;;5094193;28;20032;-66
2021/05/21 09:14:11;;;;;;;0.98;0.60;;;18.20;47.10;;;;;;5094483;28;20044;-67
2021/05/21 09:16:39;;;;;;;3.88;0.73;;;18.20;44.10;;;;;;5094387;28;20060;-67
2021/05/21 09:19:20;;;;;;;1.67;0.60;;;18.30;44.10;;;;;;5094490;28;20063;-66
2021/05/21 09:22:07;;;;;;;1.88;0.70;;;18.30;44.90;;;;;;5094327;28;20020;-66
2021/05/21 09:24:43;;;;;;;1.98;0.70;;;18.30;43.90;;;;;;5094411;28;20016;-67
2021/05/21 09:27:11;;;;;;;1.20;0.50;;;18.30;44.90;;;;;;5094103;28;20084;-70
2021/05/21 09:29:47;;;;;;;1.05;0.60;;;18.30;44.80;;;;;;5094310;28;20024;-71
2021/05/21 09:32:28;;;;;;;1.83;0.70;;;18.30;44.60;;;;;;5094358;28;20035;-67
2021/05/21 09:35:00;;;;;;;0.65;0.50;;;18.30;46.00;;;;;;5094246;28;20392;-66
2021/05/21 09:37:27;;;;;;;2.30;0.93;;;18.30;44.60;;;;;;5094026;28;20035;-66
2021/05/21 09:40:19;;;;;;;2.90;0.80;;;18.30;45.50;;;;;;5093916;28;20059;-66
2021/05/21 09:43:06;;;;;;;6.63;0.80;;;18.30;44.90;;;;;;5092120;28;20028;-66
2021/05/21 09:45:33;;;;;;;2.00;0.70;;;18.30;44.50;;;;;;5093873;28;20036;-66
2021/05/21 09:48:00;;;;;;;3.10;0.68;;;18.30;46.70;;;;;;5093822;28;20055;-67
2021/05/21 09:50:37;;;;;;;1.48;0.60;;;18.40;47.80;;;;;;5093842;28;20478;-66
2021/05/21 09:53:38;;;;;;;2.05;0.95;;;18.50;47.20;;;;;;5093633;28;20043;-66
2021/05/21 09:56:06;;;;;;;5.13;0.85;;;18.50;47.70;;;;;;5051189;28;20049;-66
2021/05/21 09:58:42;;;;;;;1.30;0.63;;;18.60;46.10;;;;;;5080255;28;20422;-73
2021/05/21 10:01:24;;;;;;;2.42;0.90;;;18.60;49.60;;;;;;5092155;28;20067;-67
2021/05/21 10:03:54;;;;;;;3.05;0.80;;;18.70;49.70;;;;;;5093306;28;20498;-67
2021/05/21 10:06:28;;;;;;;1.40;0.63;;;18.90;48.80;;;;;;5093173;28;20091;-67
2021/05/21 10:09:00;;;;;;;2.83;0.82;;;19.00;47.70;;;;;;5093518;28;20433;-66
2021/05/21 10:11:32;;;;;;;2.95;0.60;;;19.10;49.20;;;;;;5093314;28;20499;-66
2021/05/21 10:13:57;;;;;;;4.10;1.00;;;19.10;47.20;;;;;;5092993;28;20085;-67
2021/05/21 10:16:23;;;;;;;2.33;0.90;;;19.20;47.50;;;;;;5093562;28;20020;-66
2021/05/21 10:18:54;;;;;;;1.27;0.73;;;19.30;47.70;;;;;;5093017;28;20051;-66
2021/05/21 10:21:21;;;;;;;5.47;0.77;;;19.50;49.70;;;;;;5092965;28;20016;-66
2021/05/21 10:24:06;;;;;;;1.90;0.90;;;19.50;48.30;;;;;;5092992;28;20028;-66
2021/05/21 10:26:34;;;;;;;2.03;0.85;;;19.70;47.30;;;;;;5093278;28;20016;-67
2021/05/21 10:29:12;;;;;;;1.50;0.70;;;19.80;48.80;;;;;;5093076;28;20035;-66
2021/05/21 10:31:38;;;;;;;5.78;0.70;;;19.80;46.40;;;;;;5093308;28;20469;-66
2021/05/21 10:34:18;;;;;;;1.70;0.70;;;19.90;46.60;;;;;;5093007;28;20047;-66
2021/05/21 10:36:45;;;;;;;1.77;0.93;;;20.00;47.00;;;;;;5093276;28;20016;-66
2021/05/21 10:39:19;;;;;;;6.68;1.17;;;20.10;47.10;;;;;;5092882;28;20047;-66
2021/05/21 10:41:59;;;;;;;4.00;0.82;;;20.20;47.40;;;;;;5092658;28;20035;-66
2021/05/21 10:44:35;;;;;;;3.83;1.20;;;20.30;46.30;;;;;;5092918;28;20027;-66
2021/05/21 10:47:16;;;;;;;3.67;0.80;;;20.30;48.30;;;;;;5092637;28;20385;-66
2021/05/21 10:50:01;;;;;;;2.95;1.00;;;20.40;47.80;;;;;;5092815;28;20464;-66
2021/05/21 10:52:49;;;;;;;4.32;1.20;;;20.50;47.50;;;;;;5092824;28;20065;-66
2021/05/21 10:55:15;;;;;;;10.57;1.27;;;20.40;48.90;;;;;;5092658;28;20052;-66
2021/05/21 10:57:42;;;;;;;2.03;0.85;;;20.40;49.60;;;;;;5091497;28;20027;-66
2021/05/21 11:00:09;;;;;;;5.90;1.00;;;20.50;50.60;;;;;;5088457;28;20032;-66
2021/05/21 11:02:43;;;;;;;2.90;1.00;;;20.60;51.50;;;;;;5089781;28;20036;-67
2021/05/21 11:05:28;;;;;;;2.45;1.10;;;20.70;52.50;;;;;;5092193;28;20111;-66
2021/05/21 11:08:12;;;;;;;4.25;0.95;;;20.90;50.40;;;;;;5093094;28;20098;-66
2021/05/21 11:10:37;;;;;;;1.92;0.82;;;20.90;51.30;;;;;;5093074;28;20523;-66
2021/05/21 11:13:15;;;;;;;5.90;1.10;;;21.00;50.10;;;;;;5095259;28;20097;-66
2021/05/21 11:15:56;;;;;;;1.20;0.85;;;21.10;49.70;;;;;;5096952;28;20080;-66
2021/05/21 11:18:22;;;;;;;4.38;0.82;;;21.10;49.30;;;;;;5096824;28;20574;-66
2021/05/21 11:21:17;;;;;;;3.63;0.80;;;21.10;48.20;;;;;;5096543;28;20027;-66
2021/05/21 11:23:46;;;;;;;34.60;2.08;;;21.10;47.70;;;;;;5094377;28;20017;-66
2021/05/21 11:26:16;;;;;;;2.85;0.90;;;21.00;48.10;;;;;;5092866;28;20028;-67
2021/05/21 11:28:50;;;;;;;4.25;0.90;;;20.90;48.40;;;;;;5092753;28;20095;-67
2021/05/21 11:31:18;;;;;;;1.90;0.77;;;20.80;47.40;;;;;;5095534;28;20393;-67
2021/05/21 11:33:46;;;;;;;1.38;0.82;;;20.80;49.40;;;;;;5084128;28;20055;-67
2021/05/21 11:36:12;;;;;;;2.00;0.70;;;20.80;47.20;;;;;;5081026;28;20426;-67
2021/05/21 11:38:38;;;;;;;6.65;0.90;;;20.80;49.40;;;;;;5075502;28;20121;-67
2021/05/21 11:41:06;;;;;;;4.70;0.73;;;20.90;48.30;;;;;;5075623;28;20477;-67
2021/05/21 11:43:32;;;;;;;3.40;0.70;;;20.90;46.60;;;;;;5075551;28;20086;-67
2021/05/21 11:45:59;;;;;;;2.35;0.68;;;21.00;46.10;;;;;;5075064;28;20477;-71
2021/05/21 11:48:36;;;;;;;1.98;0.70;;;20.90;45.90;;;;;;5075591;28;20033;-72
2021/05/21 11:51:08;;;;;;;1.80;0.80;;;20.90;46.30;;;;;;5075656;28;20021;-71
2021/05/21 11:53:52;;;;;;;2.53;0.90;;;20.80;46.20;;;;;;5075111;28;20060;-71
2021/05/21 11:56:36;;;;;;;2.22;0.75;;;20.70;46.90;;;;;;5074222;28;20523;-70
2021/05/21 11:59:08;;;;;;;2.80;0.90;;;20.70;46.10;;;;;;5075382;28;20021;-71
2021/05/21 12:01:35;;;;;;;;;;;20.60;47.90;;;;;;5075548;28;20165;-71
2021/05/21 12:04:08;;;;;;;1.70;0.68;;;20.70;47.30;;;;;;5075421;28;20262;-70
2021/05/21 12:06:35;;;;;;;2.30;0.80;;;20.80;47.90;;;;;;5075127;28;20028;-71
2021/05/21 12:09:09;;;;;;;2.45;0.90;;;20.80;47.70;;;;;;5075008;28;20028;-71
2021/05/21 12:11:35;;;;;;;2.92;0.80;;;21.00;47.70;;;;;;5075195;28;20389;-71
2021/05/21 12:14:12;;;;;;;1.48;0.80;;;21.10;47.30;;;;;;5075125;28;20561;-71
2021/05/21 12:16:40;;;;;;;3.63;0.90;;;21.20;47.00;;;;;;5074893;28;20032;-71
2021/05/21 12:19:07;;;;;;;3.30;0.75;;;21.30;48.20;;;;;;5074822;28;20477;-71
2021/05/21 12:21:38;;;;;;;2.25;0.68;;;21.50;46.50;;;;;;5075081;28;20415;-71
2021/05/21 12:24:05;;;;;;;1.30;0.60;;;21.60;46.50;;;;;;5074228;28;20133;-71
2021/05/21 12:26:33;;;;;;;3.13;0.70;;;21.70;46.30;;;;;;5074953;28;20052;-71
2021/05/21 12:29:01;;;;;;;1.35;0.70;;;21.80;46.10;;;;;;5074684;28;20028;-71
2021/05/21 12:31:31;;;;;;;5.22;0.80;;;21.90;46.30;;;;;;5075084;28;20122;-72
2021/05/21 12:33:59;;;;;;;1.35;0.70;;;22.00;48.00;;;;;;5074696;28;20123;-71
2021/05/21 12:36:30;;;;;;;3.92;0.80;;;22.10;47.40;;;;;;5074756;28;20024;-71
2021/05/21 12:39:01;;;;;;;3.90;0.90;;;22.20;45.40;;;;;;5074820;28;20358;-70
2021/05/21 12:41:43;;;;;;;1.90;0.90;;;22.20;44.10;;;;;;5073496;28;20370;-71
2021/05/21 12:44:14;;;;;;;1.23;0.70;;;22.10;43.80;;;;;;5074843;28;20020;-71
2021/05/21 12:46:45;;;;;;;1.90;0.70;;;22.10;45.10;;;;;;5074750;28;20075;-71
2021/05/21 12:49:27;;;;;;;2.95;0.85;;;22.10;44.80;;;;;;5074496;28;20052;-74
2021/05/21 12:51:58;;;;;;;2.33;0.90;;;22.10;47.50;;;;;;5074164;28;20487;-71
2021/05/21 12:54:26;;;;;;;3.35;0.82;;;22.20;46.00;;;;;;5074076;28;20102;-71
2021/05/21 12:57:05;;;;;;;2.72;0.90;;;22.30;48.60;;;;;;5074512;28;20492;-72